sensor_id;sensor_type;location;lat;lon;timestamp;pressure;altitude;pressure_sealevel;temperature;humidity
73594;BME280;64760;53.404;23.498;2023-04-28T00:00:08;99948.63;;;1.56;100.00
73594;BME280;64760;53.404;23.498;2023-04-28T00:02:55;99953.31;;;1.42;100.00
73594;BME280;64760;53.404;23.498;2023-04-28T00:05:21;99950.91;;;1.30;100.00
73594;BME280;64760;53.404;23.498;2023-04-28T00:07:48;99967.13;;;1.25;100.00
73594;BME280;64760;53.404;23.498;2023-04-28T00:10:14;99957.97;;;1.29;100.00
73594;BME280;64760;53.404;23.498;2023-04-28T00:12:40;99967.59;;;1.30;100.00
73594;BME280;64760;53.404;23.498;2023-04-28T00:15:07;99960.06;;;1.35;100.00
73594;BME280;64760;53.404;23.498;2023-04-28T00:17:33;99962.94;;;1.53;100.00
73594;BME280;64760;53.404;23.498;2023-04-28T00:20:00;99959.63;;;1.61;100.00
73594;BME280;64760;53.404;23.498;2023-04-28T00:22:26;99963.94;;;1.62;100.00
73594;BME280;64760;53.404;23.498;2023-04-28T00:24:52;99964.75;;;1.53;100.00
73594;BME280;64760;53.404;23.498;2023-04-28T00:27:18;99962.72;;;1.35;100.00
73594;BME280;64760;53.404;23.498;2023-04-28T00:29:45;99964.13;;;1.39;100.00
73594;BME280;64760;53.404;23.498;2023-04-28T00:32:12;99969.16;;;1.42;100.00
73594;BME280;64760;53.404;23.498;2023-04-28T00:34:38;99967.75;;;1.38;100.00
73594;BME280;64760;53.404;23.498;2023-04-28T00:37:04;99964.97;;;1.40;100.00
73594;BME280;64760;53.404;23.498;2023-04-28T00:39:31;99971.47;;;1.36;100.00
73594;BME280;64760;53.404;23.498;2023-04-28T00:41:57;99968.09;;;1.24;100.00
73594;BME280;64760;53.404;23.498;2023-04-28T00:44:23;99976.09;;;1.13;100.00
73594;BME280;64760;53.404;23.498;2023-04-28T00:46:49;99988.91;;;0.97;100.00
73594;BME280;64760;53.404;23.498;2023-04-28T00:49:16;99976.81;;;0.74;100.00
73594;BME280;64760;53.404;23.498;2023-04-28T00:51:42;99982.81;;;0.55;100.00
73594;BME280;64760;53.404;23.498;2023-04-28T00:54:12;99991.84;;;0.41;100.00
73594;BME280;64760;53.404;23.498;2023-04-28T00:56:38;99989.94;;;0.32;100.00
73594;BME280;64760;53.404;23.498;2023-04-28T00:59:04;99997.63;;;0.24;100.00
73594;BME280;64760;53.404;23.498;2023-04-28T01:01:31;99984.50;;;0.13;100.00
73594;BME280;64760;53.404;23.498;2023-04-28T01:03:58;99986.91;;;0.05;100.00
73594;BME280;64760;53.404;23.498;2023-04-28T01:06:24;99992.22;;;-0.06;100.00
73594;BME280;64760;53.404;23.498;2023-04-28T01:08:54;99998.47;;;-0.18;100.00
73594;BME280;64760;53.404;23.498;2023-04-28T01:11:21;99994.28;;;-0.21;100.00
73594;BME280;64760;53.404;23.498;2023-04-28T01:13:56;99994.41;;;-0.33;100.00
73594;BME280;64760;53.404;23.498;2023-04-28T01:16:25;99996.31;;;-0.35;100.00
73594;BME280;64760;53.404;23.498;2023-04-28T01:18:53;99992.25;;;-0.39;100.00
73594;BME280;64760;53.404;23.498;2023-04-28T01:21:32;99997.06;;;-0.33;100.00
73594;BME280;64760;53.404;23.498;2023-04-28T01:24:05;99987.97;;;-0.40;100.00
73594;BME280;64760;53.404;23.498;2023-04-28T01:26:32;99991.06;;;-0.47;100.00
73594;BME280;64760;53.404;23.498;2023-04-28T01:29:00;99981.13;;;-0.54;100.00
73594;BME280;64760;53.404;23.498;2023-04-28T01:31:26;99988.19;;;-0.55;100.00
73594;BME280;64760;53.404;23.498;2023-04-28T01:33:53;99996.22;;;-0.67;100.00
73594;BME280;64760;53.404;23.498;2023-04-28T01:36:19;99984.84;;;-0.79;100.00
73594;BME280;64760;53.404;23.498;2023-04-28T01:38:47;99993.22;;;-0.85;100.00
73594;BME280;64760;53.404;23.498;2023-04-28T01:41:13;99982.56;;;-0.95;100.00
73594;BME280;64760;53.404;23.498;2023-04-28T01:43:40;99986.38;;;-0.99;100.00
73594;BME280;64760;53.404;23.498;2023-04-28T01:46:06;99984.31;;;-1.06;100.00
73594;BME280;64760;53.404;23.498;2023-04-28T01:48:32;99981.84;;;-1.08;100.00
73594;BME280;64760;53.404;23.498;2023-04-28T01:50:58;99990.66;;;-1.09;100.00
73594;BME280;64760;53.404;23.498;2023-04-28T01:53:24;99988.16;;;-1.10;100.00
73594;BME280;64760;53.404;23.498;2023-04-28T01:55:50;99993.41;;;-1.10;100.00
73594;BME280;64760;53.404;23.498;2023-04-28T01:58:18;99977.88;;;-1.02;100.00
73594;BME280;64760;53.404;23.498;2023-04-28T02:00:44;99981.25;;;-1.00;100.00
73594;BME280;64760;53.404;23.498;2023-04-28T02:03:10;99988.88;;;-1.08;100.00
73594;BME280;64760;53.404;23.498;2023-04-28T02:05:37;99983.38;;;-1.16;100.00
73594;BME280;64760;53.404;23.498;2023-04-28T02:08:03;99986.47;;;-1.11;100.00
73594;BME280;64760;53.404;23.498;2023-04-28T02:10:29;99982.03;;;-1.11;100.00
73594;BME280;64760;53.404;23.498;2023-04-28T02:12:57;99975.91;;;-1.22;100.00
73594;BME280;64760;53.404;23.498;2023-04-28T02:15:23;99977.25;;;-1.28;100.00
73594;BME280;64760;53.404;23.498;2023-04-28T02:17:49;99979.47;;;-1.34;100.00
73594;BME280;64760;53.404;23.498;2023-04-28T02:20:15;99980.22;;;-1.32;100.00
73594;BME280;64760;53.404;23.498;2023-04-28T02:22:42;99972.44;;;-1.34;100.00
73594;BME280;64760;53.404;23.498;2023-04-28T02:25:08;99983.56;;;-1.30;100.00
73594;BME280;64760;53.404;23.498;2023-04-28T02:27:37;99970.63;;;-1.33;100.00
73594;BME280;64760;53.404;23.498;2023-04-28T02:30:04;99983.31;;;-1.27;100.00
73594;BME280;64760;53.404;23.498;2023-04-28T02:32:31;99982.50;;;-1.28;100.00
73594;BME280;64760;53.404;23.498;2023-04-28T02:34:57;99975.41;;;-1.27;100.00
73594;BME280;64760;53.404;23.498;2023-04-28T02:37:23;99988.38;;;-1.24;100.00
73594;BME280;64760;53.404;23.498;2023-04-28T02:39:52;99990.00;;;-1.23;100.00
73594;BME280;64760;53.404;23.498;2023-04-28T02:42:20;99993.63;;;-1.24;100.00
73594;BME280;64760;53.404;23.498;2023-04-28T02:44:46;99985.00;;;-1.15;100.00
73594;BME280;64760;53.404;23.498;2023-04-28T02:47:13;99993.28;;;-1.20;100.00
73594;BME280;64760;53.404;23.498;2023-04-28T02:49:39;99998.06;;;-1.14;100.00
73594;BME280;64760;53.404;23.498;2023-04-28T02:52:06;99994.66;;;-0.92;100.00
73594;BME280;64760;53.404;23.498;2023-04-28T02:54:32;99996.66;;;-0.96;100.00
73594;BME280;64760;53.404;23.498;2023-04-28T02:57:00;99991.38;;;-0.96;100.00
73594;BME280;64760;53.404;23.498;2023-04-28T02:59:28;99990.19;;;-1.03;100.00
73594;BME280;64760;53.404;23.498;2023-04-28T03:01:54;99995.69;;;-1.06;100.00
73594;BME280;64760;53.404;23.498;2023-04-28T03:04:20;100001.56;;;-1.02;100.00
73594;BME280;64760;53.404;23.498;2023-04-28T03:06:47;100004.94;;;-0.78;100.00
73594;BME280;64760;53.404;23.498;2023-04-28T03:09:15;99999.69;;;-0.67;100.00
73594;BME280;64760;53.404;23.498;2023-04-28T03:11:41;100008.06;;;-0.51;100.00
73594;BME280;64760;53.404;23.498;2023-04-28T03:14:08;99997.31;;;-0.36;100.00
73594;BME280;64760;53.404;23.498;2023-04-28T03:16:34;100011.41;;;-0.37;100.00
73594;BME280;64760;53.404;23.498;2023-04-28T03:19:00;100015.59;;;-0.46;100.00
73594;BME280;64760;53.404;23.498;2023-04-28T03:21:27;100014.28;;;-0.52;100.00
73594;BME280;64760;53.404;23.498;2023-04-28T03:23:54;100016.69;;;-0.49;100.00
73594;BME280;64760;53.404;23.498;2023-04-28T03:26:21;100007.31;;;-0.64;100.00
73594;BME280;64760;53.404;23.498;2023-04-28T03:28:48;100018.59;;;-0.62;100.00
73594;BME280;64760;53.404;23.498;2023-04-28T03:31:15;100015.72;;;-0.70;100.00
73594;BME280;64760;53.404;23.498;2023-04-28T03:33:41;100004.94;;;-0.78;100.00
73594;BME280;64760;53.404;23.498;2023-04-28T03:36:10;100011.41;;;-0.82;100.00
73594;BME280;64760;53.404;23.498;2023-04-28T03:38:36;100012.81;;;-0.89;100.00
73594;BME280;64760;53.404;23.498;2023-04-28T03:41:03;100017.84;;;-0.86;100.00
73594;BME280;64760;53.404;23.498;2023-04-28T03:43:32;100019.78;;;-0.77;100.00
73594;BME280;64760;53.404;23.498;2023-04-28T03:46:11;100030.78;;;-0.27;100.00
73594;BME280;64760;53.404;23.498;2023-04-28T03:48:37;100030.06;;;-0.07;100.00
73594;BME280;64760;53.404;23.498;2023-04-28T03:51:04;100022.53;;;-0.01;100.00
73594;BME280;64760;53.404;23.498;2023-04-28T03:53:30;100031.81;;;0.15;100.00
73594;BME280;64760;53.404;23.498;2023-04-28T03:55:56;100029.28;;;0.24;100.00
73594;BME280;64760;53.404;23.498;2023-04-28T03:58:23;100027.44;;;0.47;100.00
73594;BME280;64760;53.404;23.498;2023-04-28T04:00:50;100037.72;;;0.50;100.00
73594;BME280;64760;53.404;23.498;2023-04-28T04:03:16;100036.19;;;0.47;100.00
73594;BME280;64760;53.404;23.498;2023-04-28T04:05:44;100032.34;;;0.40;100.00
73594;BME280;64760;53.404;23.498;2023-04-28T04:08:11;100039.34;;;0.30;100.00
73594;BME280;64760;53.404;23.498;2023-04-28T04:10:37;100047.84;;;0.34;100.00
73594;BME280;64760;53.404;23.498;2023-04-28T04:13:03;100039.81;;;0.35;100.00
73594;BME280;64760;53.404;23.498;2023-04-28T04:15:30;100049.16;;;0.39;100.00
73594;BME280;64760;53.404;23.498;2023-04-28T04:17:57;100051.31;;;0.34;100.00
73594;BME280;64760;53.404;23.498;2023-04-28T04:20:25;100050.78;;;0.40;100.00
73594;BME280;64760;53.404;23.498;2023-04-28T04:22:51;100044.94;;;0.37;100.00
73594;BME280;64760;53.404;23.498;2023-04-28T04:25:18;100045.53;;;0.40;100.00
73594;BME280;64760;53.404;23.498;2023-04-28T04:27:47;100047.94;;;0.43;100.00
73594;BME280;64760;53.404;23.498;2023-04-28T04:30:14;100041.69;;;0.44;100.00
73594;BME280;64760;53.404;23.498;2023-04-28T04:32:41;100051.00;;;0.48;100.00
73594;BME280;64760;53.404;23.498;2023-04-28T04:35:08;100058.28;;;0.56;100.00
73594;BME280;64760;53.404;23.498;2023-04-28T04:37:34;100050.75;;;0.63;100.00
73594;BME280;64760;53.404;23.498;2023-04-28T04:40:02;100058.88;;;0.71;100.00
73594;BME280;64760;53.404;23.498;2023-04-28T04:42:33;100049.09;;;0.82;100.00
73594;BME280;64760;53.404;23.498;2023-04-28T04:45:08;100055.72;;;0.98;100.00
73594;BME280;64760;53.404;23.498;2023-04-28T04:47:35;100056.50;;;1.09;100.00
73594;BME280;64760;53.404;23.498;2023-04-28T04:50:01;100059.94;;;1.21;100.00
73594;BME280;64760;53.404;23.498;2023-04-28T04:52:28;100055.22;;;1.24;100.00
73594;BME280;64760;53.404;23.498;2023-04-28T04:54:54;100058.63;;;1.36;100.00
73594;BME280;64760;53.404;23.498;2023-04-28T04:57:23;100067.06;;;1.51;100.00
73594;BME280;64760;53.404;23.498;2023-04-28T05:00:10;100061.88;;;1.70;100.00
73594;BME280;64760;53.404;23.498;2023-04-28T05:02:37;100056.50;;;1.81;100.00
73594;BME280;64760;53.404;23.498;2023-04-28T05:05:05;100060.72;;;1.93;100.00
73594;BME280;64760;53.404;23.498;2023-04-28T05:07:32;100062.44;;;2.13;100.00
73594;BME280;64760;53.404;23.498;2023-04-28T05:09:59;100072.50;;;2.29;100.00
73594;BME280;64760;53.404;23.498;2023-04-28T05:12:26;100060.88;;;2.51;100.00
73594;BME280;64760;53.404;23.498;2023-04-28T05:14:52;100060.03;;;2.79;100.00
73594;BME280;64760;53.404;23.498;2023-04-28T05:17:21;100068.97;;;2.88;100.00
73594;BME280;64760;53.404;23.498;2023-04-28T05:19:47;100062.56;;;3.00;100.00
73594;BME280;64760;53.404;23.498;2023-04-28T05:22:15;100062.41;;;3.11;100.00
73594;BME280;64760;53.404;23.498;2023-04-28T05:24:41;100063.09;;;3.22;100.00
73594;BME280;64760;53.404;23.498;2023-04-28T05:27:07;100064.88;;;3.31;100.00
73594;BME280;64760;53.404;23.498;2023-04-28T05:29:34;100068.63;;;3.48;100.00
73594;BME280;64760;53.404;23.498;2023-04-28T05:32:01;100075.00;;;3.55;100.00
73594;BME280;64760;53.404;23.498;2023-04-28T05:34:27;100070.38;;;3.67;100.00
73594;BME280;64760;53.404;23.498;2023-04-28T05:36:53;100076.75;;;3.84;100.00
73594;BME280;64760;53.404;23.498;2023-04-28T05:39:24;100072.38;;;3.92;100.00
73594;BME280;64760;53.404;23.498;2023-04-28T05:41:53;100080.84;;;4.05;100.00
73594;BME280;64760;53.404;23.498;2023-04-28T05:44:19;100076.31;;;4.15;100.00
73594;BME280;64760;53.404;23.498;2023-04-28T05:46:46;100078.34;;;4.31;100.00
73594;BME280;64760;53.404;23.498;2023-04-28T05:49:13;100080.09;;;4.40;100.00
73594;BME280;64760;53.404;23.498;2023-04-28T05:51:40;100079.75;;;4.53;99.34
73594;BME280;64760;53.404;23.498;2023-04-28T05:54:07;100075.69;;;4.76;97.05
73594;BME280;64760;53.404;23.498;2023-04-28T05:56:40;100079.59;;;4.90;95.58
73594;BME280;64760;53.404;23.498;2023-04-28T05:59:08;100076.34;;;4.96;93.21
73594;BME280;64760;53.404;23.498;2023-04-28T06:01:35;100084.03;;;4.81;93.23
73594;BME280;64760;53.404;23.498;2023-04-28T06:04:04;100087.28;;;4.93;93.09
73594;BME280;64760;53.404;23.498;2023-04-28T06:06:30;100085.25;;;5.04;92.16
73594;BME280;64760;53.404;23.498;2023-04-28T06:09:01;100082.78;;;5.29;89.84
73594;BME280;64760;53.404;23.498;2023-04-28T06:11:38;100081.13;;;5.53;89.08
73594;BME280;64760;53.404;23.498;2023-04-28T06:14:05;100091.28;;;5.32;87.48
73594;BME280;64760;53.404;23.498;2023-04-28T06:16:32;100091.34;;;5.66;87.34
73594;BME280;64760;53.404;23.498;2023-04-28T06:18:59;100085.59;;;5.96;81.93
73594;BME280;64760;53.404;23.498;2023-04-28T06:21:25;100088.34;;;6.12;78.30
73594;BME280;64760;53.404;23.498;2023-04-28T06:23:54;100082.59;;;6.33;75.83
73594;BME280;64760;53.404;23.498;2023-04-28T06:26:20;100094.25;;;6.32;70.12
73594;BME280;64760;53.404;23.498;2023-04-28T06:28:47;100086.28;;;6.40;70.27
73594;BME280;64760;53.404;23.498;2023-04-28T06:31:13;100076.00;;;6.53;71.63
73594;BME280;64760;53.404;23.498;2023-04-28T06:33:39;100084.47;;;6.49;71.83
73594;BME280;64760;53.404;23.498;2023-04-28T06:36:06;100086.22;;;6.74;69.01
73594;BME280;64760;53.404;23.498;2023-04-28T06:38:33;100087.22;;;6.81;59.95
73594;BME280;64760;53.404;23.498;2023-04-28T06:40:59;100098.72;;;6.82;58.28
73594;BME280;64760;53.404;23.498;2023-04-28T06:43:26;100090.59;;;6.99;58.14
73594;BME280;64760;53.404;23.498;2023-04-28T06:46:03;100095.09;;;7.07;53.68
73594;BME280;64760;53.404;23.498;2023-04-28T06:48:30;100083.56;;;6.90;53.81
73594;BME280;64760;53.404;23.498;2023-04-28T06:50:56;100090.13;;;7.20;54.92
73594;BME280;64760;53.404;23.498;2023-04-28T06:53:23;100091.44;;;7.32;54.64
73594;BME280;64760;53.404;23.498;2023-04-28T06:55:49;100101.28;;;7.56;52.89
73594;BME280;64760;53.404;23.498;2023-04-28T06:58:16;100099.09;;;7.35;51.71
73594;BME280;64760;53.404;23.498;2023-04-28T07:00:43;100101.59;;;7.45;50.52
73594;BME280;64760;53.404;23.498;2023-04-28T07:03:09;100097.75;;;7.55;51.62
73594;BME280;64760;53.404;23.498;2023-04-28T07:05:36;100101.56;;;7.69;50.05
73594;BME280;64760;53.404;23.498;2023-04-28T07:08:03;100095.41;;;7.61;48.19
73594;BME280;64760;53.404;23.498;2023-04-28T07:10:29;100098.41;;;7.74;48.35
73594;BME280;64760;53.404;23.498;2023-04-28T07:12:56;100095.38;;;7.85;48.22
73594;BME280;64760;53.404;23.498;2023-04-28T07:15:22;100094.94;;;8.12;46.62
73594;BME280;64760;53.404;23.498;2023-04-28T07:17:49;100101.13;;;8.13;45.21
73594;BME280;64760;53.404;23.498;2023-04-28T07:20:16;100095.13;;;8.19;44.01
73594;BME280;64760;53.404;23.498;2023-04-28T07:22:42;100090.25;;;8.30;46.06
73594;BME280;64760;53.404;23.498;2023-04-28T07:25:09;100079.56;;;8.30;42.83
73594;BME280;64760;53.404;23.498;2023-04-28T07:27:36;100096.81;;;8.12;43.08
73594;BME280;64760;53.404;23.498;2023-04-28T07:30:03;100086.56;;;8.39;42.62
73594;BME280;64760;53.404;23.498;2023-04-28T07:32:30;100087.31;;;8.48;43.66
73594;BME280;64760;53.404;23.498;2023-04-28T07:34:56;100087.69;;;8.45;41.35
73594;BME280;64760;53.404;23.498;2023-04-28T07:37:22;100075.91;;;8.23;41.59
73594;BME280;64760;53.404;23.498;2023-04-28T07:39:48;100080.84;;;8.42;37.93
73594;BME280;64760;53.404;23.498;2023-04-28T07:42:15;100079.81;;;8.52;39.71
73594;BME280;64760;53.404;23.498;2023-04-28T07:44:43;100072.19;;;8.71;39.94
73594;BME280;64760;53.404;23.498;2023-04-28T07:47:09;100077.28;;;8.81;39.48
73594;BME280;64760;53.404;23.498;2023-04-28T07:49:36;100075.75;;;8.64;40.52
73594;BME280;64760;53.404;23.498;2023-04-28T07:52:03;100067.41;;;8.59;39.87
73594;BME280;64760;53.404;23.498;2023-04-28T07:54:29;100070.22;;;8.65;40.17
73594;BME280;64760;53.404;23.498;2023-04-28T07:56:56;100074.78;;;8.87;38.12
73594;BME280;64760;53.404;23.498;2023-04-28T07:59:25;100078.34;;;9.03;37.46
73594;BME280;64760;53.404;23.498;2023-04-28T08:01:51;100082.31;;;9.29;37.48
73594;BME280;64760;53.404;23.498;2023-04-28T08:04:17;100061.03;;;9.13;37.98
73594;BME280;64760;53.404;23.498;2023-04-28T08:06:44;100060.84;;;9.52;38.10
73594;BME280;64760;53.404;23.498;2023-04-28T08:09:10;100064.72;;;9.35;37.09
73594;BME280;64760;53.404;23.498;2023-04-28T08:11:37;100061.34;;;9.18;36.74
73594;BME280;64760;53.404;23.498;2023-04-28T08:14:04;100055.72;;;9.28;37.54
73594;BME280;64760;53.404;23.498;2023-04-28T08:16:31;100068.63;;;9.24;37.45
73594;BME280;64760;53.404;23.498;2023-04-28T08:18:57;100063.22;;;9.10;38.12
73594;BME280;64760;53.404;23.498;2023-04-28T08:21:25;100058.53;;;9.34;38.44
73594;BME280;64760;53.404;23.498;2023-04-28T08:23:51;100061.41;;;8.87;37.72
73594;BME280;64760;53.404;23.498;2023-04-28T08:26:18;100042.19;;;9.44;39.01
73594;BME280;64760;53.404;23.498;2023-04-28T08:28:44;100070.31;;;9.63;37.54
73594;BME280;64760;53.404;23.498;2023-04-28T08:31:11;100045.69;;;9.82;37.37
73594;BME280;64760;53.404;23.498;2023-04-28T08:33:37;100062.91;;;9.79;37.53
73594;BME280;64760;53.404;23.498;2023-04-28T08:36:04;100063.13;;;9.93;36.13
73594;BME280;64760;53.404;23.498;2023-04-28T08:38:30;100049.72;;;10.07;35.33
73594;BME280;64760;53.404;23.498;2023-04-28T08:40:57;100062.38;;;10.13;38.19
73594;BME280;64760;53.404;23.498;2023-04-28T08:43:24;100055.53;;;10.40;38.40
73594;BME280;64760;53.404;23.498;2023-04-28T08:45:51;100051.84;;;10.12;34.84
73594;BME280;64760;53.404;23.498;2023-04-28T08:48:18;100052.69;;;9.98;35.44
73594;BME280;64760;53.404;23.498;2023-04-28T08:50:54;100052.78;;;9.75;34.81
73594;BME280;64760;53.404;23.498;2023-04-28T08:53:24;100052.50;;;9.70;36.49
73594;BME280;64760;53.404;23.498;2023-04-28T08:55:54;100053.69;;;10.11;36.85
73594;BME280;64760;53.404;23.498;2023-04-28T08:58:24;100039.13;;;9.99;39.23
73594;BME280;64760;53.404;23.498;2023-04-28T09:00:52;100043.97;;;10.54;36.77
73594;BME280;64760;53.404;23.498;2023-04-28T09:03:20;100044.91;;;10.47;36.95
73594;BME280;64760;53.404;23.498;2023-04-28T09:05:47;100049.16;;;10.12;38.29
73594;BME280;64760;53.404;23.498;2023-04-28T09:08:14;100043.91;;;9.74;38.48
73594;BME280;64760;53.404;23.498;2023-04-28T09:10:40;100051.75;;;9.76;39.37
73594;BME280;64760;53.404;23.498;2023-04-28T09:13:07;100052.03;;;9.81;38.65
73594;BME280;64760;53.404;23.498;2023-04-28T09:15:36;100043.38;;;9.94;34.44
73594;BME280;64760;53.404;23.498;2023-04-28T09:18:04;100044.75;;;9.89;32.91
73594;BME280;64760;53.404;23.498;2023-04-28T09:20:32;100043.06;;;10.03;34.09
73594;BME280;64760;53.404;23.498;2023-04-28T09:26:05;100038.38;;;10.34;33.44
73594;BME280;64760;53.404;23.498;2023-04-28T09:28:34;100037.94;;;10.88;33.12
73594;BME280;64760;53.404;23.498;2023-04-28T09:31:01;100034.03;;;10.69;34.04
73594;BME280;64760;53.404;23.498;2023-04-28T09:33:28;100032.06;;;10.99;34.05
73594;BME280;64760;53.404;23.498;2023-04-28T09:35:55;100023.50;;;10.89;35.78
73594;BME280;64760;53.404;23.498;2023-04-28T09:38:22;100019.78;;;11.11;34.39
73594;BME280;64760;53.404;23.498;2023-04-28T09:40:53;100024.09;;;11.06;33.24
73594;BME280;64760;53.404;23.498;2023-04-28T09:45:57;100024.66;;;10.80;34.01
73594;BME280;64760;53.404;23.498;2023-04-28T09:48:27;100031.63;;;10.74;35.36
73594;BME280;64760;53.404;23.498;2023-04-28T09:50:54;100023.38;;;10.55;35.58
73594;BME280;64760;53.404;23.498;2023-04-28T09:53:22;100021.31;;;10.21;36.87
73594;BME280;64760;53.404;23.498;2023-04-28T09:55:51;100021.75;;;10.10;36.49
73594;BME280;64760;53.404;23.498;2023-04-28T09:58:22;100031.31;;;10.48;34.40
73594;BME280;64760;53.404;23.498;2023-04-28T10:00:56;100020.31;;;10.43;33.80
73594;BME280;64760;53.404;23.498;2023-04-28T10:03:27;100019.22;;;10.73;31.25
73594;BME280;64760;53.404;23.498;2023-04-28T10:05:56;100013.59;;;10.68;32.63
73594;BME280;64760;53.404;23.498;2023-04-28T10:08:23;99999.91;;;11.27;33.62
73594;BME280;64760;53.404;23.498;2023-04-28T10:10:51;99997.34;;;11.19;32.46
73594;BME280;64760;53.404;23.498;2023-04-28T10:13:22;100003.63;;;11.26;32.09
73594;BME280;64760;53.404;23.498;2023-04-28T10:15:50;100013.44;;;11.40;33.20
73594;BME280;64760;53.404;23.498;2023-04-28T10:18:16;100007.75;;;11.77;30.91
73594;BME280;64760;53.404;23.498;2023-04-28T10:20:48;99998.97;;;11.13;31.97
73594;BME280;64760;53.404;23.498;2023-04-28T10:26:55;99991.47;;;11.30;31.74
73594;BME280;64760;53.404;23.498;2023-04-28T10:29:25;99991.19;;;11.46;31.60
73594;BME280;64760;53.404;23.498;2023-04-28T10:32:26;99987.25;;;11.42;31.06
73594;BME280;64760;53.404;23.498;2023-04-28T10:38:16;99991.22;;;11.53;31.31
73594;BME280;64760;53.404;23.498;2023-04-28T10:40:47;99989.63;;;11.58;29.82
73594;BME280;64760;53.404;23.498;2023-04-28T10:56:07;99983.94;;;12.09;28.63
73594;BME280;64760;53.404;23.498;2023-04-28T10:58:33;99963.81;;;11.98;29.91
73594;BME280;64760;53.404;23.498;2023-04-28T11:06:40;99981.25;;;11.74;30.54
73594;BME280;64760;53.404;23.498;2023-04-28T11:14:32;99973.97;;;11.34;30.33
73594;BME280;64760;53.404;23.498;2023-04-28T11:17:09;99987.63;;;12.08;28.50
73594;BME280;64760;53.404;23.498;2023-04-28T11:19:40;99975.53;;;12.25;28.50
73594;BME280;64760;53.404;23.498;2023-04-28T11:22:27;99968.78;;;12.62;28.22
73594;BME280;64760;53.404;23.498;2023-04-28T11:24:59;99965.84;;;12.50;29.13
73594;BME280;64760;53.404;23.498;2023-04-28T11:27:27;99962.97;;;12.52;27.53
73594;BME280;64760;53.404;23.498;2023-04-28T11:29:53;99966.50;;;12.46;27.69
73594;BME280;64760;53.404;23.498;2023-04-28T11:32:31;99966.31;;;12.60;29.04
73594;BME280;64760;53.404;23.498;2023-04-28T11:34:57;99960.34;;;12.11;28.61
73594;BME280;64760;53.404;23.498;2023-04-28T11:37:25;99973.72;;;12.45;28.71
73594;BME280;64760;53.404;23.498;2023-04-28T11:39:51;99962.38;;;12.63;28.29
73594;BME280;64760;53.404;23.498;2023-04-28T11:42:18;99951.44;;;12.64;28.80
73594;BME280;64760;53.404;23.498;2023-04-28T11:44:51;99965.81;;;12.31;29.32
73594;BME280;64760;53.404;23.498;2023-04-28T11:47:32;99959.88;;;12.48;28.63
73594;BME280;64760;53.404;23.498;2023-04-28T11:49:59;99964.94;;;12.17;28.96
73594;BME280;64760;53.404;23.498;2023-04-28T11:52:26;99959.09;;;12.87;27.93
73594;BME280;64760;53.404;23.498;2023-04-28T11:54:53;99960.31;;;12.71;27.09
73594;BME280;64760;53.404;23.498;2023-04-28T11:57:21;99962.00;;;12.05;28.64
73594;BME280;64760;53.404;23.498;2023-04-28T11:59:48;99964.00;;;12.51;28.31
73594;BME280;64760;53.404;23.498;2023-04-28T12:02:15;99956.72;;;12.32;29.02
73594;BME280;64760;53.404;23.498;2023-04-28T12:04:43;99956.25;;;12.15;29.17
73594;BME280;64760;53.404;23.498;2023-04-28T12:09:48;99959.56;;;12.17;28.05
73594;BME280;64760;53.404;23.498;2023-04-28T12:12:31;99967.47;;;11.77;29.81
73594;BME280;64760;53.404;23.498;2023-04-28T12:15:01;99967.03;;;11.46;29.84
73594;BME280;64760;53.404;23.498;2023-04-28T12:17:30;99955.91;;;11.49;29.83
73594;BME280;64760;53.404;23.498;2023-04-28T12:19:58;99963.84;;;11.36;30.54
73594;BME280;64760;53.404;23.498;2023-04-28T12:22:26;99956.75;;;11.56;29.87
73594;BME280;64760;53.404;23.498;2023-04-28T12:27:34;99957.91;;;12.22;29.39
73594;BME280;64760;53.404;23.498;2023-04-28T12:30:01;99954.81;;;11.71;30.13
73594;BME280;64760;53.404;23.498;2023-04-28T12:32:40;99950.00;;;11.67;29.45
73594;BME280;64760;53.404;23.498;2023-04-28T12:35:06;99949.44;;;11.71;30.31
73594;BME280;64760;53.404;23.498;2023-04-28T12:37:33;99945.03;;;11.64;29.89
73594;BME280;64760;53.404;23.498;2023-04-28T12:39:59;99943.78;;;11.66;29.87
73594;BME280;64760;53.404;23.498;2023-04-28T12:42:27;99938.03;;;11.69;29.14
73594;BME280;64760;53.404;23.498;2023-04-28T12:44:54;99945.16;;;11.49;30.44
73594;BME280;64760;53.404;23.498;2023-04-28T12:47:20;99944.50;;;11.47;31.16
73594;BME280;64760;53.404;23.498;2023-04-28T12:49:47;99940.50;;;11.30;30.13
73594;BME280;64760;53.404;23.498;2023-04-28T12:52:16;99936.25;;;11.76;29.04
73594;BME280;64760;53.404;23.498;2023-04-28T12:54:42;99930.72;;;11.91;29.72
73594;BME280;64760;53.404;23.498;2023-04-28T12:57:13;99923.25;;;12.41;28.63
73594;BME280;64760;53.404;23.498;2023-04-28T12:59:39;99931.53;;;12.52;28.22
73594;BME280;64760;53.404;23.498;2023-04-28T13:02:06;99928.59;;;12.34;27.64
73594;BME280;64760;53.404;23.498;2023-04-28T13:04:32;99932.28;;;12.13;27.79
73594;BME280;64760;53.404;23.498;2023-04-28T13:06:59;99934.75;;;12.15;28.06
73594;BME280;64760;53.404;23.498;2023-04-28T13:09:26;99928.63;;;11.87;28.12
73594;BME280;64760;53.404;23.498;2023-04-28T13:11:52;99931.13;;;11.88;27.69
73594;BME280;64760;53.404;23.498;2023-04-28T13:14:19;99931.41;;;11.65;28.21
73594;BME280;64760;53.404;23.498;2023-04-28T13:16:46;99931.00;;;11.68;28.39
73594;BME280;64760;53.404;23.498;2023-04-28T13:19:12;99930.88;;;11.76;28.42
73594;BME280;64760;53.404;23.498;2023-04-28T13:21:40;99938.78;;;11.85;26.95
73594;BME280;64760;53.404;23.498;2023-04-28T13:24:07;99923.69;;;11.49;27.95
73594;BME280;64760;53.404;23.498;2023-04-28T13:26:35;99927.50;;;11.68;27.36
73594;BME280;64760;53.404;23.498;2023-04-28T13:29:02;99929.22;;;11.75;26.74